METAR Data
IDs: Format: Raw Decoded Include TAF

Data at: 0005 UTC 26 Oct 2021

KAFW 252353Z 08005KT 10SM FEW250 27/13 A2990 RMK AO2 SLP117 T02720133 10300 20272 55003
KAFW 252253Z 08007KT 10SM FEW250 29/13 A2990 RMK AO2 SLP113 T02890133
KAFW 252153Z 08007KT 10SM FEW250 29/14 A2990 RMK AO2 SLP115 T02940139
KAFW 252053Z 11006KT 10SM FEW250 29/14 A2991 RMK AO2 SLP118 T02940139 56018
KAFW 251953Z 13008KT 10SM FEW250 29/12 A2993 RMK AO2 SLP121 T02940122
KAFW 251853Z 13004KT 10SM FEW250 28/11 A2994 RMK AO2 SLP129 T02830106
KAFW 251753Z 13008KT 10SM FEW250 27/10 A2997 RMK AO2 SLP138 T02720100 10272 20139 58012
KAFW 251653Z 09007KT 10SM FEW250 26/09 A2999 RMK AO2 SLP144 T02560094
KAFW 251553Z 11009KT 060V130 10SM FEW250 23/12 A3000 RMK AO2 SLP148 T02330122
KAFW 251453Z 03004KT 10SM FEW250 20/14 A3000 RMK AO2 SLP150 T02000139 51020
KAFW 251353Z 01003KT 10SM CLR 17/14 A3000 RMK AO2 SLP147 T01720139
KAFW 251253Z 36005KT 10SM CLR 14/12 A2996 RMK AO2 SLP138 T01390122 $
KAFW 251153Z 01003KT 10SM CLR 15/13 A2995 RMK AO2 SLP131 T01500128 10194 20150 51007 $
KAFW 251053Z 05003KT 10SM CLR 16/13 A2994 RMK AO2 SLP128 T01610133 $
KAFW 250953Z 03003KT 10SM CLR 16/13 A2993 RMK AO2 SLP124 T01610128 $
KAFW 250853Z 06004KT 10SM CLR 18/13 A2992 RMK AO2 SLP121 T01830133 53005 $
KAFW 250753Z 07004KT 10SM CLR 19/13 A2992 RMK AO2 SLP119 T01890128 $
KAFW 250653Z 00000KT 10SM CLR 19/12 A2991 RMK AO2 SLP117 T01890117 $
KAFW 250553Z 01007KT 10SM CLR 18/11 A2991 RMK AO2 SLP118 T01780111 10278 20178 403110178 50015 $
KAFW 250453Z 01005KT 10SM CLR 20/11 A2991 RMK AO2 SLP118 T02000106 $
KAFW 250353Z 01005KT 10SM FEW037 22/09 A2989 RMK AO2 SLP110 T02170094 $
KAFW 250253Z 01008KT 10SM SCT037 BKN055 24/09 A2986 RMK AO2 SLP100 T02440089 51039 $
KAFW 250153Z 02004KT 10SM SCT036 BKN055 27/20 A2983 RMK AO2 LTG DSNT E SLP088 CB DSNT E MOV SE T02720200 $
KAFW 250053Z VRB06KT 10SM BKN036 BKN065 BKN080 27/20 A2980 RMK AO2 LTG DSNT E SLP080 CB DSNT N-NE MOV E T02720200 $
KAFW 242353Z 17014KT 10SM FEW050 27/20 A2975 RMK AO2 LTG DSNT NE SLP061 T02720200 10311 20272 53001
KAFW 242253Z 17016KT 10SM FEW055 FEW250 29/20 A2974 RMK AO2 SLP058 T02940200
KAFW 242153Z 18014KT 10SM FEW055 FEW250 31/20 A2974 RMK AO2 SLP059 T03060200
KAFW 242053Z 19013KT 10SM SCT049 BKN250 31/19 A2974 RMK AO2 SLP057 T03060194 55012
KAFW 241953Z 20012G21KT 10SM BKN043 BKN120 BKN250 30/19 A2974 RMK AO2 SLP057 T03000194
KAFW 241853Z 20012G20KT 10SM BKN033 BKN045 BKN120 BKN250 29/20 A2977 RMK AO2 PK WND 17029/1758 SLP067 T02890200
KAFW 241753Z 18019G26KT 10SM BKN030 BKN120 BKN250 28/19 A2978 RMK AO2 PK WND 17029/1726 SLP071 T02780194 10289 20211 58015
KAFW 241730Z 18022G29KT 10SM BKN030 BKN250 28/19 A2980 RMK AO2 PK WND 17029/1726 T02780194
KAFW 241653Z 18017G26KT 10SM BKN029 BKN250 26/19 A2980 RMK AO2 PK WND 18026/1619 SLP079 T02610194
KAFW 241640Z 19019G26KT 10SM BKN027 BKN110 BKN250 27/19 A2981 RMK AO2 PK WND 18026/1619 T02670194
KAFW 241553Z 19017G25KT 10SM SCT024 SCT110 BKN250 27/19 A2982 RMK AO2 SLP083 T02670194
KAFW 241453Z 18017KT 10SM FEW024 SCT110 BKN250 24/19 A2982 RMK AO2 SLP086 T02440194 53005
KAFW 241353Z 16015KT 10SM SCT024 SCT120 BKN250 23/19 A2981 RMK AO2 SLP080 T02280189
KAFW 241337Z 17015KT 10SM SCT024 BKN120 BKN250 22/19 A2981 RMK AO2 T02170189
KAFW 241253Z 18013KT 10SM BKN018 OVC120 22/18 A2982 RMK AO2 SLP084 T02170183
KAFW 241228Z 19016KT 10SM OVC015 21/18 A2982 RMK AO2 T02110183